createdAt,value
2023-02-08T00:00:57.752Z,75.31
2023-02-08T00:01:57.809Z,75.68
2023-02-08T00:03:00.997Z,75.78
2023-02-08T00:03:57.631Z,74.83
2023-02-08T00:04:58.651Z,75.21
2023-02-08T00:05:57.514Z,74.83
2023-02-08T00:06:58.662Z,75.68
2023-02-08T00:07:57.401Z,75.21
2023-02-08T00:08:57.454Z,75.68
2023-02-08T00:09:57.328Z,75.59
2023-02-08T00:10:57.481Z,75.59
2023-02-08T00:11:57.218Z,75.59
2023-02-08T00:12:58.501Z,75.31
2023-02-08T00:13:57.106Z,75.31
2023-02-08T00:14:57.096Z,75.87
2023-02-08T00:15:57.045Z,75.59
2023-02-08T00:16:57.195Z,75.87
2023-02-08T00:17:56.908Z,75.96
2023-02-08T00:18:57.026Z,75.87
2023-02-08T00:19:56.809Z,75.87
2023-02-08T00:20:56.871Z,75.68
2023-02-08T00:21:56.833Z,75.78
2023-02-08T00:22:56.665Z,76.06
2023-02-08T00:23:56.841Z,75.96
2023-02-08T00:24:56.584Z,75.96
2023-02-08T00:25:57.680Z,75.87
2023-02-08T00:26:56.465Z,75.68
2023-02-08T00:27:56.668Z,76.25
2023-02-08T00:28:56.365Z,76.06
2023-02-08T00:29:56.480Z,76.15
2023-02-08T00:30:56.618Z,76.40
2023-02-08T00:31:56.240Z,76.44
2023-02-08T00:32:56.166Z,75.83
2023-02-08T00:33:56.199Z,75.74
2023-02-08T00:34:56.058Z,75.93
2023-02-08T00:35:56.104Z,76.21
2023-02-08T00:36:55.984Z,76.02
2023-02-08T00:37:55.925Z,76.21
2023-02-08T00:38:55.859Z,76.68
2023-02-08T00:39:57.056Z,76.78
2023-02-08T00:40:55.757Z,76.21
2023-02-08T00:41:55.759Z,76.87
2023-02-08T00:42:55.705Z,76.68
2023-02-08T00:43:55.621Z,77.53
2023-02-08T00:44:55.572Z,77.15
2023-02-08T00:45:55.676Z,77.15
2023-02-08T00:46:55.491Z,77.15
2023-02-08T00:47:55.482Z,77.63
2023-02-08T00:48:55.366Z,77.25
2023-02-08T00:49:55.509Z,77.82
2023-02-08T00:50:55.262Z,77.34
2023-02-08T00:51:55.314Z,77.25
2023-02-08T00:52:55.361Z,77.44
2023-02-08T00:53:55.331Z,77.25
2023-02-08T00:54:55.322Z,77.91
2023-02-08T00:55:55.017Z,77.44
2023-02-08T00:56:55.138Z,77.25
2023-02-08T00:57:54.912Z,77.25
2023-02-08T00:58:55.149Z,77.91
2023-02-08T00:59:54.830Z,78.20
2023-02-08T01:00:54.866Z,78.44
2023-02-08T01:01:54.926Z,78.01
2023-02-08T01:02:54.661Z,78.48
2023-02-08T01:03:54.878Z,78.58
2023-02-08T01:04:54.638Z,78.29
2023-02-08T01:05:54.684Z,78.39
2023-02-08T01:06:54.461Z,78.48
2023-02-08T01:07:54.492Z,78.29
2023-02-08T01:08:54.351Z,78.10
2023-02-08T01:09:54.419Z,78.20
2023-02-08T01:10:54.293Z,78.10
2023-02-08T01:11:54.208Z,78.29
2023-02-08T01:12:55.708Z,78.39
2023-02-08T01:13:55.265Z,78.39
2023-02-08T01:14:54.060Z,78.20
2023-02-08T01:15:54.265Z,78.20
2023-02-08T01:16:54.106Z,78.39
2023-02-08T01:17:53.910Z,78.01
2023-02-08T01:18:53.861Z,78.01
2023-02-08T01:19:54.092Z,77.44
2023-02-08T01:20:53.766Z,77.44
2023-02-08T01:21:53.892Z,77.82
2023-02-08T01:22:53.667Z,77.82
2023-02-08T01:23:53.616Z,77.25
2023-02-08T01:24:53.708Z,77.44
2023-02-08T01:25:53.509Z,77.15
2023-02-08T01:26:53.712Z,77.34
2023-02-08T01:27:53.452Z,77.25
2023-02-08T01:28:53.732Z,77.15
2023-02-08T01:29:53.314Z,76.97
2023-02-08T01:30:53.372Z,77.25
2023-02-08T01:31:53.237Z,77.25
2023-02-08T01:32:53.350Z,77.25
2023-02-08T01:33:53.104Z,77.53
2023-02-08T01:34:53.071Z,77.15
2023-02-08T01:35:53.014Z,77.34
2023-02-08T01:36:53.083Z,76.87
2023-02-08T01:37:52.904Z,76.87
2023-02-08T01:38:53.081Z,76.50
2023-02-08T01:39:52.815Z,76.40
2023-02-08T01:40:52.941Z,76.68
2023-02-08T01:41:52.701Z,76.21
2023-02-08T01:42:53.730Z,76.02
2023-02-08T01:43:52.603Z,75.78
2023-02-08T01:44:52.719Z,75.87
2023-02-08T01:45:52.546Z,75.78
2023-02-08T01:46:52.478Z,75.40
2023-02-08T01:47:52.541Z,75.40
2023-02-08T01:48:52.353Z,74.64
2023-02-08T01:49:52.551Z,74.83
2023-02-08T01:50:52.253Z,74.93
2023-02-08T01:51:52.464Z,74.26
2023-02-08T01:52:52.328Z,73.69
2023-02-08T01:53:53.301Z,73.69
2023-02-08T01:54:52.054Z,73.60
2023-02-08T01:55:52.290Z,73.88
2023-02-08T01:56:51.962Z,73.60
2023-02-08T01:57:51.908Z,73.79
2023-02-08T01:58:51.877Z,73.22
2023-02-08T01:59:51.912Z,72.75
2023-02-08T02:00:51.778Z,72.94
2023-02-08T02:01:51.921Z,73.03
2023-02-08T02:02:51.662Z,73.32
2023-02-08T02:03:51.614Z,73.32
2023-02-08T02:04:52.974Z,73.79
2023-02-08T02:05:51.508Z,73.79
2023-02-08T02:06:51.548Z,73.69
2023-02-08T02:07:51.412Z,73.13
2023-02-08T02:08:51.465Z,72.75
2023-02-08T02:09:51.316Z,73.13
2023-02-08T02:10:51.380Z,72.94
2023-02-08T02:11:51.213Z,73.13
2023-02-08T02:12:51.396Z,73.03
2023-02-08T02:13:51.113Z,73.03
2023-02-08T02:14:52.221Z,72.56
2023-02-08T02:15:51.015Z,72.47
2023-02-08T02:16:52.249Z,72.75
2023-02-08T02:17:50.923Z,72.47
2023-02-08T02:18:51.023Z,72.09
2023-02-08T02:19:50.814Z,72.18
2023-02-08T02:20:50.762Z,72.28
2023-02-08T02:21:50.718Z,72.18
2023-02-08T02:22:50.859Z,71.80
2023-02-08T02:23:50.612Z,72.18
2023-02-08T02:24:51.680Z,71.99
2023-02-08T02:25:50.519Z,71.71
2023-02-08T02:26:50.470Z,71.80
2023-02-08T02:27:50.707Z,71.42
2023-02-08T02:28:50.528Z,71.33
2023-02-08T02:29:50.486Z,71.52
2023-02-08T02:30:50.309Z,71.23
2023-02-08T02:31:50.559Z,71.42
2023-02-08T02:32:50.167Z,71.23
2023-02-08T02:33:50.314Z,71.23
2023-02-08T02:34:50.078Z,71.33
2023-02-08T02:35:51.146Z,71.23
2023-02-08T02:36:49.967Z,71.14
2023-02-08T02:37:49.917Z,71.33
2023-02-08T02:38:49.870Z,71.23
2023-02-08T02:39:49.952Z,71.23
2023-02-08T02:40:50.036Z,70.67
2023-02-08T02:41:49.965Z,70.39
2023-02-08T02:42:49.672Z,70.76
2023-02-08T02:43:49.622Z,71.33
2023-02-08T02:44:49.569Z,71.33
2023-02-08T02:45:49.849Z,71.52
2023-02-08T02:46:49.508Z,71.23
2023-02-08T02:47:49.707Z,71.33
2023-02-08T02:48:49.375Z,71.42
2023-02-08T02:49:49.338Z,71.52
2023-02-08T02:50:49.281Z,71.42
2023-02-08T02:51:49.322Z,71.14
2023-02-08T02:52:49.381Z,71.23
2023-02-08T02:53:49.336Z,71.01
2023-02-08T02:54:49.084Z,70.25
2023-02-08T02:55:50.169Z,70.92
2023-02-08T02:56:48.985Z,70.63
2023-02-08T02:57:49.177Z,70.63
2023-02-08T02:58:48.893Z,70.35
2023-02-08T02:59:48.980Z,70.86
2023-02-08T03:00:48.922Z,70.57
2023-02-08T03:01:49.043Z,70.48
2023-02-08T03:03:09.884Z,70.54
2023-02-08T03:03:48.629Z,70.76
2023-02-08T03:04:48.591Z,70.67
2023-02-08T03:05:49.632Z,70.86
2023-02-08T03:06:48.615Z,70.20
2023-02-08T03:07:48.450Z,69.91
2023-02-08T03:08:48.632Z,70.01
2023-02-08T03:09:48.335Z,69.91
2023-02-08T03:10:48.439Z,70.76
2023-02-08T03:11:48.235Z,69.91
2023-02-08T03:12:48.182Z,70.48
2023-02-08T03:13:48.459Z,70.10
2023-02-08T03:14:48.095Z,69.91
2023-02-08T03:15:48.070Z,69.72
2023-02-08T03:16:48.060Z,69.53
2023-02-08T03:17:47.935Z,69.82
2023-02-08T03:18:47.892Z,69.25
2023-02-08T03:19:48.096Z,69.53
2023-02-08T03:20:47.800Z,69.44
2023-02-08T03:21:47.916Z,68.68
2023-02-08T03:22:47.687Z,68.87
2023-02-08T03:23:47.639Z,68.87
2023-02-08T03:24:47.590Z,68.77
2023-02-08T03:25:47.632Z,68.87
2023-02-08T03:26:47.506Z,68.96
2023-02-08T03:27:48.565Z,68.87
2023-02-08T03:28:47.399Z,68.96
2023-02-08T03:29:47.347Z,68.87
2023-02-08T03:30:47.447Z,68.77
2023-02-08T03:31:47.542Z,68.77
2023-02-08T03:32:47.397Z,69.06
2023-02-08T03:33:47.146Z,68.87
2023-02-08T03:34:47.390Z,68.77
2023-02-08T03:35:47.055Z,68.68
2023-02-08T03:36:47.201Z,68.77
2023-02-08T03:37:47.276Z,69.15
2023-02-08T03:38:47.013Z,69.25
2023-02-08T03:39:46.850Z,69.06
2023-02-08T03:40:46.794Z,68.87
2023-02-08T03:41:46.752Z,68.87
2023-02-08T03:42:46.835Z,68.68
2023-02-08T03:43:46.667Z,68.87
2023-02-08T03:44:47.050Z,68.30
2023-02-08T03:45:46.627Z,68.49
2023-02-08T03:46:46.497Z,68.87
2023-02-08T03:47:46.454Z,68.30
2023-02-08T03:48:46.691Z,68.40
2023-02-08T03:49:46.375Z,68.21
2023-02-08T03:50:46.490Z,68.30
2023-02-08T03:51:46.261Z,67.93
2023-02-08T03:52:46.207Z,68.21
2023-02-08T03:53:47.329Z,68.30
2023-02-08T03:54:46.103Z,68.02
2023-02-08T03:55:46.327Z,68.02
2023-02-08T03:56:46.002Z,68.68
2023-02-08T03:57:45.952Z,68.30
2023-02-08T03:58:45.902Z,68.21
2023-02-08T03:59:46.142Z,68.49
2023-02-08T04:00:45.799Z,68.21
2023-02-08T04:01:45.980Z,68.49
2023-02-08T04:02:45.758Z,68.30
2023-02-08T04:03:45.674Z,68.40
2023-02-08T04:04:45.606Z,68.40
2023-02-08T04:05:45.769Z,68.30
2023-02-08T04:06:45.506Z,68.59
2023-02-08T04:07:45.783Z,68.68
2023-02-08T04:08:45.403Z,68.40
2023-02-08T04:09:45.461Z,68.30
2023-02-08T04:10:45.600Z,68.02
2023-02-08T04:11:45.259Z,68.02
2023-02-08T04:12:45.416Z,67.36
2023-02-08T04:13:45.181Z,67.36
2023-02-08T04:14:45.221Z,67.36
2023-02-08T04:15:45.067Z,67.55
2023-02-08T04:16:46.259Z,67.36
2023-02-08T04:17:44.961Z,67.55
2023-02-08T04:18:45.045Z,67.17
2023-02-08T04:19:46.125Z,67.17
2023-02-08T04:20:44.812Z,67.55
2023-02-08T04:21:44.763Z,67.26
2023-02-08T04:22:45.899Z,67.55
2023-02-08T04:23:44.666Z,67.36
2023-02-08T04:24:44.884Z,67.55
2023-02-08T04:25:44.575Z,67.17
2023-02-08T04:26:44.518Z,67.30
2023-02-08T04:27:44.605Z,66.63
2023-02-08T04:28:44.418Z,66.92
2023-02-08T04:29:44.617Z,67.11
2023-02-08T04:30:44.605Z,66.79
2023-02-08T04:31:44.489Z,67.01
2023-02-08T04:32:44.220Z,66.44
2023-02-08T04:33:44.442Z,66.82
2023-02-08T04:34:44.119Z,66.73
2023-02-08T04:35:45.272Z,66.16
2023-02-08T04:36:44.043Z,66.35
2023-02-08T04:37:44.785Z,66.44
2023-02-08T04:38:43.931Z,66.44
2023-02-08T04:39:45.107Z,66.06
2023-02-08T04:40:43.825Z,66.35
2023-02-08T04:41:43.890Z,66.63
2023-02-08T04:42:43.954Z,66.63
2023-02-08T04:43:43.680Z,66.63
2023-02-08T04:44:43.635Z,66.50
2023-02-08T04:45:43.718Z,66.22
2023-02-08T04:46:43.579Z,67.07
2023-02-08T04:47:43.540Z,66.79
2023-02-08T04:48:43.451Z,66.88
2023-02-08T04:49:43.440Z,67.36
2023-02-08T04:50:43.545Z,66.98
2023-02-08T04:51:43.285Z,67.26
2023-02-08T04:52:43.368Z,66.69
2023-02-08T04:53:43.187Z,66.98
2023-02-08T04:54:43.580Z,66.22
2023-02-08T04:55:43.089Z,66.88
2023-02-08T04:56:43.290Z,66.79
2023-02-08T04:57:42.988Z,67.07
2023-02-08T04:58:43.101Z,67.45
2023-02-08T04:59:42.898Z,67.26
2023-02-08T05:00:43.024Z,67.36
2023-02-08T05:01:42.800Z,67.45
2023-02-08T05:02:42.921Z,67.45
2023-02-08T05:03:42.711Z,67.36
2023-02-08T05:04:43.020Z,67.64
2023-02-08T05:05:42.598Z,67.64
2023-02-08T05:06:42.810Z,67.55
2023-02-08T05:07:42.747Z,67.17
2023-02-08T05:08:42.447Z,67.26
2023-02-08T05:09:42.559Z,67.45
2023-02-08T05:10:42.514Z,67.55
2023-02-08T05:11:42.368Z,67.64
2023-02-08T05:12:42.272Z,67.26
2023-02-08T05:13:42.394Z,68.12
2023-02-08T05:14:42.146Z,68.02
2023-02-08T05:15:42.411Z,67.74
2023-02-08T05:16:42.073Z,67.74
2023-02-08T05:17:42.006Z,68.30
2023-02-08T05:18:41.968Z,68.30
2023-02-08T05:19:42.015Z,68.77
2023-02-08T05:20:42.076Z,68.77
2023-02-08T05:21:42.237Z,68.77
2023-02-08T05:22:41.779Z,68.30
2023-02-08T05:23:41.700Z,68.49
2023-02-08T05:24:41.648Z,68.77
2023-02-08T05:25:42.058Z,69.25
2023-02-08T05:26:41.581Z,68.87
2023-02-08T05:27:41.663Z,68.87
2023-02-08T05:28:41.460Z,68.77
2023-02-08T05:29:41.726Z,68.96
2023-02-08T05:30:41.783Z,68.68
2023-02-08T05:31:41.349Z,68.87
2023-02-08T05:32:42.515Z,68.59
2023-02-08T05:33:41.200Z,68.96
2023-02-08T05:34:41.302Z,68.68
2023-02-08T05:35:41.226Z,68.59
2023-02-08T05:36:41.135Z,69.53
2023-02-08T05:37:41.004Z,69.44
2023-02-08T05:38:41.126Z,69.34
2023-02-08T05:39:40.911Z,69.44
2023-02-08T05:40:41.022Z,70.10
2023-02-08T05:41:40.995Z,69.91
2023-02-08T05:42:40.953Z,69.63
2023-02-08T05:43:40.714Z,69.53
2023-02-08T05:44:40.991Z,69.44
2023-02-08T05:45:40.609Z,69.53
2023-02-08T05:46:40.569Z,69.25
2023-02-08T05:47:40.781Z,68.68
2023-02-08T05:48:40.459Z,69.06
2023-02-08T05:49:40.699Z,69.53
2023-02-08T05:50:40.559Z,69.53
2023-02-08T05:51:40.400Z,69.63
2023-02-08T05:52:40.258Z,69.63
2023-02-08T05:53:40.421Z,69.34
2023-02-08T05:54:40.179Z,69.34
2023-02-08T05:55:40.244Z,69.15
2023-02-08T05:56:40.057Z,69.34
2023-02-08T05:57:40.018Z,69.34
2023-02-08T05:58:39.961Z,69.25
2023-02-08T05:59:39.959Z,69.34
2023-02-08T06:03:47.791Z,68.87
2023-02-08T06:04:47.562Z,69.06
2023-02-08T06:05:47.680Z,69.34
2023-02-08T06:06:47.462Z,69.44
2023-02-08T06:07:49.523Z,69.91
2023-02-08T06:08:47.359Z,69.72
2023-02-08T06:09:48.589Z,70.16
2023-02-08T06:10:47.346Z,70.01
2023-02-08T06:11:47.304Z,70.48
2023-02-08T06:12:47.154Z,71.04
2023-02-08T06:13:48.140Z,70.48
2023-02-08T06:14:47.119Z,70.48
2023-02-08T06:15:47.005Z,70.39
2023-02-08T06:16:47.193Z,70.29
2023-02-08T06:17:46.900Z,70.29
2023-02-08T06:18:47.967Z,70.39
2023-02-08T06:19:46.804Z,70.16
2023-02-08T06:20:46.755Z,70.82
2023-02-08T06:21:47.799Z,70.73
2023-02-08T06:22:46.812Z,70.57
2023-02-08T06:23:47.816Z,70.73
2023-02-08T06:24:46.555Z,70.63
2023-02-08T06:25:46.585Z,70.73
2023-02-08T06:26:46.452Z,70.63
2023-02-08T06:27:47.626Z,70.44
2023-02-08T06:28:46.384Z,70.63
2023-02-08T06:29:46.415Z,70.25
2023-02-08T06:30:46.253Z,71.01
2023-02-08T06:31:46.312Z,71.30
2023-02-08T06:32:46.156Z,71.39
2023-02-08T06:33:46.439Z,70.92
2023-02-08T06:34:46.054Z,71.48
2023-02-08T06:35:47.070Z,70.54
2023-02-08T06:36:45.974Z,70.67
2023-02-08T06:37:45.905Z,70.86
2023-02-08T06:38:46.070Z,70.48
2023-02-08T06:39:45.803Z,70.95
2023-02-08T06:40:47.004Z,69.72
2023-02-08T06:41:45.712Z,70.29
2023-02-08T06:42:46.714Z,70.01
2023-02-08T06:43:45.604Z,70.10
2023-02-08T06:44:54.417Z,70.57
2023-02-08T06:45:45.571Z,69.91
2023-02-08T06:46:45.615Z,70.01
2023-02-08T06:47:45.410Z,70.01
2023-02-08T06:48:45.357Z,70.57
2023-02-08T06:49:45.531Z,69.82
2023-02-08T06:50:45.282Z,69.82
2023-02-08T06:51:45.238Z,69.91
2023-02-08T06:52:45.154Z,70.01
2023-02-08T06:53:45.256Z,69.91
2023-02-08T06:54:45.058Z,69.44
2023-02-08T06:55:45.169Z,69.53
2023-02-08T06:56:44.957Z,70.10
2023-02-08T06:57:45.078Z,69.72
2023-02-08T06:58:44.859Z,69.53
2023-02-08T06:59:44.810Z,69.63
2023-02-08T07:00:44.756Z,70.10
2023-02-08T07:02:06.972Z,70.29
2023-02-08T07:02:44.658Z,69.72
2023-02-08T07:03:44.612Z,69.91
2023-02-08T07:05:05.612Z,69.53
2023-02-08T07:05:58.667Z,69.63
2023-02-08T07:06:46.733Z,69.53
2023-02-08T07:07:44.540Z,69.82
2023-02-08T07:08:44.396Z,69.63
2023-02-08T07:09:44.351Z,70.01
2023-02-08T07:10:46.346Z,70.20
2023-02-08T07:11:44.370Z,70.20
2023-02-08T07:12:44.171Z,69.91
2023-02-08T07:13:45.202Z,69.72
2023-02-08T07:14:45.256Z,69.82
2023-02-08T07:15:44.211Z,69.82
2023-02-08T07:16:44.026Z,69.72
2023-02-08T07:17:45.023Z,69.91
2023-02-08T07:18:43.865Z,69.91
2023-02-08T07:19:44.014Z,69.82
2023-02-08T07:20:43.766Z,70.10
2023-02-08T07:21:44.034Z,69.63
2023-02-08T07:22:43.834Z,69.34
2023-02-08T07:23:43.627Z,69.53
2023-02-08T07:24:44.664Z,69.53
2023-02-08T07:25:43.518Z,69.44
2023-02-08T07:26:43.658Z,69.63
2023-02-08T07:27:43.437Z,69.63
2023-02-08T07:28:43.374Z,69.25
2023-02-08T07:29:43.369Z,69.44
2023-02-08T07:30:43.398Z,69.53
2023-02-08T07:31:43.438Z,69.44
2023-02-08T07:32:43.177Z,70.10
2023-02-08T07:33:43.401Z,69.82
2023-02-08T07:34:43.084Z,69.53
2023-02-08T07:35:43.212Z,69.53
2023-02-08T07:36:42.976Z,69.91
2023-02-08T07:37:43.129Z,69.72
2023-02-08T07:38:42.885Z,69.63
2023-02-08T07:39:42.853Z,69.44
2023-02-08T07:40:42.941Z,69.25
2023-02-08T07:41:42.948Z,69.63
2023-02-08T07:42:42.678Z,69.34
2023-02-08T07:43:44.807Z,69.44
2023-02-08T07:44:42.592Z,69.53
2023-02-08T07:45:42.622Z,69.72
2023-02-08T07:46:42.488Z,69.34
2023-02-08T07:47:42.585Z,69.34
2023-02-08T07:48:42.392Z,68.77
2023-02-08T07:49:42.396Z,68.87
2023-02-08T07:50:42.456Z,68.87
2023-02-08T07:51:42.251Z,68.81
2023-02-08T07:52:42.269Z,68.12
2023-02-08T07:53:42.219Z,68.15
2023-02-08T07:54:42.092Z,67.77
2023-02-08T07:55:42.252Z,68.15
2023-02-08T07:56:42.001Z,67.39
2023-02-08T07:57:42.049Z,67.17
2023-02-08T07:58:41.916Z,67.07
2023-02-08T07:59:42.069Z,67.26
2023-02-08T08:00:42.006Z,67.36
2023-02-08T08:02:03.006Z,67.93
2023-02-08T08:02:41.701Z,68.49
2023-02-08T08:03:41.918Z,68.30
2023-02-08T08:04:41.738Z,68.68
2023-02-08T08:05:41.694Z,68.40
2023-02-08T08:06:41.499Z,68.30
2023-02-08T08:07:41.509Z,68.12
2023-02-08T08:08:41.405Z,68.77
2023-02-08T08:09:41.517Z,68.68
2023-02-08T08:10:41.593Z,68.87
2023-02-08T08:11:43.375Z,69.25
2023-02-08T08:12:41.201Z,68.68
2023-02-08T08:13:42.372Z,68.68
2023-02-08T08:14:41.354Z,68.77
2023-02-08T08:15:41.122Z,68.21
2023-02-08T08:16:41.371Z,68.30
2023-02-08T08:17:40.958Z,68.30
2023-02-08T08:18:41.995Z,68.33
2023-02-08T08:19:40.860Z,68.33
2023-02-08T08:20:41.076Z,68.15
2023-02-08T08:21:40.773Z,67.68
2023-02-08T08:22:42.232Z,67.39
2023-02-08T08:23:40.661Z,67.58
2023-02-08T08:24:41.841Z,67.49
2023-02-08T08:25:40.567Z,67.49
2023-02-08T08:26:40.523Z,67.49
2023-02-08T08:27:40.626Z,67.68
2023-02-08T08:28:40.465Z,67.30
2023-02-08T08:29:41.470Z,67.30
2023-02-08T08:30:40.489Z,67.30
2023-02-08T08:31:40.314Z,67.30
2023-02-08T08:32:40.220Z,67.11
2023-02-08T08:33:40.268Z,67.30
2023-02-08T08:34:40.324Z,67.49
2023-02-08T08:35:40.287Z,67.20
2023-02-08T08:36:40.023Z,67.30
2023-02-08T08:37:39.972Z,67.11
2023-02-08T08:38:39.928Z,66.53
2023-02-08T08:39:40.101Z,66.92
2023-02-08T08:40:40.201Z,66.73
2023-02-08T08:41:39.920Z,66.44
2023-02-08T08:42:39.732Z,66.00
2023-02-08T08:43:39.685Z,66.00
2023-02-08T08:44:40.752Z,66.16
2023-02-08T08:45:39.580Z,65.50
2023-02-08T08:46:39.967Z,65.59
2023-02-08T08:47:39.487Z,65.88
2023-02-08T08:48:39.569Z,66.16
2023-02-08T08:49:39.387Z,66.16
2023-02-08T08:50:40.561Z,65.88
2023-02-08T08:51:39.292Z,65.97
2023-02-08T08:52:39.379Z,65.44
2023-02-08T08:53:39.192Z,65.53
2023-02-08T08:54:39.395Z,65.25
2023-02-08T08:55:39.094Z,65.06
2023-02-08T08:56:39.215Z,65.63
2023-02-08T08:57:39.023Z,65.81
2023-02-08T08:58:39.225Z,64.93
2023-02-08T08:59:38.896Z,65.06
2023-02-08T09:00:39.029Z,65.15
2023-02-08T09:01:38.822Z,64.96
2023-02-08T09:02:39.857Z,65.15
2023-02-08T09:03:38.765Z,65.34
2023-02-08T09:04:38.748Z,65.53
2023-02-08T09:05:38.605Z,65.25
2023-02-08T09:06:38.561Z,65.15
2023-02-08T09:07:38.504Z,65.53
2023-02-08T09:08:39.697Z,64.87
2023-02-08T09:09:38.407Z,65.34
2023-02-08T09:10:40.882Z,64.58
2023-02-08T09:11:38.311Z,64.49
2023-02-08T09:12:38.299Z,64.39
2023-02-08T09:13:38.300Z,64.49
2023-02-08T09:14:38.160Z,64.20
2023-02-08T09:15:38.315Z,64.20
2023-02-08T09:16:38.092Z,63.82
2023-02-08T09:17:38.183Z,63.92
2023-02-08T09:18:37.999Z,63.45
2023-02-08T09:19:38.040Z,63.45
2023-02-08T09:20:37.875Z,63.45
2023-02-08T09:21:38.153Z,62.72
2023-02-08T09:22:37.780Z,62.53
2023-02-08T09:23:37.730Z,62.82
2023-02-08T09:24:37.694Z,62.24
2023-02-08T09:25:37.780Z,62.91
2023-02-08T09:26:37.582Z,62.53
2023-02-08T09:27:38.817Z,62.62
2023-02-08T09:28:37.490Z,62.05
2023-02-08T09:29:37.441Z,62.34
2023-02-08T09:30:37.384Z,62.43
2023-02-08T09:31:39.791Z,61.58
2023-02-08T09:32:37.300Z,61.21
2023-02-08T09:33:37.526Z,61.58
2023-02-08T09:34:37.217Z,61.68
2023-02-08T09:35:37.147Z,61.68
2023-02-08T09:36:39.183Z,61.80
2023-02-08T09:37:37.056Z,61.80
2023-02-08T09:38:38.176Z,61.33
2023-02-08T09:39:36.979Z,60.76
2023-02-08T09:40:37.167Z,60.38
2023-02-08T09:41:36.864Z,60.28
2023-02-08T09:42:36.976Z,60.28
2023-02-08T09:43:36.771Z,60.38
2023-02-08T09:44:36.787Z,60.38
2023-02-08T09:45:39.784Z,60.28
2023-02-08T09:46:36.656Z,59.91
2023-02-08T09:47:36.576Z,60.57
2023-02-08T09:48:36.616Z,60.57
2023-02-08T09:49:36.486Z,60.00
2023-02-08T09:50:36.644Z,60.28
2023-02-08T09:51:36.401Z,60.10
2023-02-08T09:52:36.350Z,59.59
2023-02-08T09:53:36.321Z,60.47
2023-02-08T09:54:36.470Z,59.53
2023-02-08T09:55:36.200Z,60.10
2023-02-08T09:56:36.470Z,60.10
2023-02-08T09:57:36.107Z,60.38
2023-02-08T09:58:36.063Z,59.41
2023-02-08T09:59:36.085Z,59.69
2023-02-08T10:00:36.068Z,60.10
2023-02-08T10:03:07.902Z,60.00
2023-02-08T10:04:07.453Z,59.91
2023-02-08T10:05:07.658Z,59.34
2023-02-08T10:06:07.386Z,59.53
2023-02-08T10:07:07.475Z,59.44
2023-02-08T10:08:07.269Z,59.53
2023-02-08T10:09:09.533Z,59.72
2023-02-08T10:10:07.172Z,59.72
2023-02-08T10:11:07.301Z,59.72
2023-02-08T10:12:07.114Z,59.25
2023-02-08T10:13:07.106Z,59.15
2023-02-08T10:14:06.992Z,59.15
2023-02-08T10:15:15.766Z,59.34
2023-02-08T10:16:06.902Z,59.15
2023-02-08T10:17:07.139Z,58.58
2023-02-08T10:18:06.847Z,58.67
2023-02-08T10:19:07.145Z,58.48
2023-02-08T10:20:06.738Z,58.96
2023-02-08T10:21:06.647Z,59.15
2023-02-08T10:22:07.794Z,59.05
2023-02-08T10:23:06.570Z,58.86
2023-02-08T10:24:07.592Z,58.48
2023-02-08T10:25:06.458Z,57.82
2023-02-08T10:26:07.615Z,58.45
2023-02-08T10:27:06.378Z,58.45
2023-02-08T10:28:06.647Z,58.58
2023-02-08T10:29:06.266Z,58.96
2023-02-08T10:30:06.404Z,59.15
2023-02-08T10:31:09.930Z,59.15
2023-02-08T10:32:06.240Z,58.39
2023-02-08T10:33:06.074Z,58.39
2023-02-08T10:34:08.498Z,58.01
2023-02-08T10:35:05.983Z,58.29
2023-02-08T10:36:06.244Z,58.48
2023-02-08T10:37:05.888Z,57.92
2023-02-08T10:38:05.836Z,58.11
2023-02-08T10:39:05.796Z,58.42
2023-02-08T10:40:06.886Z,57.95
2023-02-08T10:41:05.707Z,57.47
2023-02-08T10:42:05.895Z,57.19
2023-02-08T10:43:05.608Z,57.38
2023-02-08T10:44:05.557Z,56.81
2023-02-08T10:45:18.882Z,56.99
2023-02-08T10:46:05.483Z,56.99
2023-02-08T10:47:05.510Z,56.71
2023-02-08T10:48:05.390Z,56.81
2023-02-08T10:49:05.421Z,56.81
2023-02-08T10:50:05.281Z,56.71
2023-02-08T10:51:05.345Z,56.84
2023-02-08T10:52:05.448Z,56.08
2023-02-08T10:53:05.398Z,55.89
2023-02-08T10:54:05.129Z,55.79
2023-02-08T10:55:05.037Z,55.70
2023-02-08T10:56:04.997Z,55.51
2023-02-08T10:57:05.169Z,55.41
2023-02-08T10:58:04.943Z,55.32
2023-02-08T10:59:07.029Z,54.75
2023-02-08T11:00:04.814Z,54.27
2023-02-08T11:01:05.819Z,54.18
2023-02-08T11:02:04.811Z,54.37
2023-02-08T11:03:04.666Z,54.37
2023-02-08T11:04:05.213Z,54.08
2023-02-08T11:05:04.585Z,54.37
2023-02-08T11:06:25.520Z,54.27
2023-02-08T11:07:04.481Z,53.80
2023-02-08T11:08:04.630Z,53.52
2023-02-08T11:09:04.383Z,53.89
2023-02-08T11:10:04.444Z,54.27
2023-02-08T11:11:04.497Z,54.27
2023-02-08T11:12:04.246Z,54.08
2023-02-08T11:13:04.196Z,53.99
2023-02-08T11:14:04.265Z,53.80
2023-02-08T11:15:04.108Z,53.89
2023-02-08T11:16:05.314Z,53.52
2023-02-08T11:17:04.020Z,53.33
2023-02-08T11:18:03.965Z,53.99
2023-02-08T11:19:03.921Z,53.64
2023-02-08T11:20:04.110Z,53.45
2023-02-08T11:21:06.119Z,53.16
2023-02-08T11:22:04.026Z,52.97
2023-02-08T11:23:03.735Z,52.76
2023-02-08T11:24:03.692Z,52.76
2023-02-08T11:25:05.898Z,52.66
2023-02-08T11:26:03.599Z,52.78
2023-02-08T11:27:04.686Z,52.78
2023-02-08T11:28:03.548Z,52.87
2023-02-08T11:29:03.563Z,52.97
2023-02-08T11:30:03.421Z,52.87
2023-02-08T11:31:04.602Z,52.59
2023-02-08T11:32:03.421Z,52.31
2023-02-08T11:33:03.593Z,52.40
2023-02-08T11:34:03.334Z,52.12
2023-02-08T11:35:03.182Z,52.22
2023-02-08T11:36:03.160Z,52.31
2023-02-08T11:37:03.211Z,51.93
2023-02-08T11:38:03.046Z,51.26
2023-02-08T11:39:04.246Z,51.93
2023-02-08T11:40:02.958Z,51.83
2023-02-08T11:41:02.907Z,51.74
2023-02-08T11:42:02.867Z,51.36
2023-02-08T11:43:02.985Z,51.45
2023-02-08T11:44:02.916Z,51.57
2023-02-08T11:45:05.237Z,51.01
2023-02-08T11:46:02.739Z,51.01
2023-02-08T11:47:02.784Z,51.01
2023-02-08T11:48:02.620Z,51.67
2023-02-08T11:49:02.997Z,50.60
2023-02-08T11:50:02.503Z,50.91
2023-02-08T11:51:02.606Z,50.34
2023-02-08T11:52:02.606Z,50.62
2023-02-08T11:53:02.352Z,50.41
2023-02-08T11:54:03.440Z,50.34
2023-02-08T11:55:02.259Z,50.43
2023-02-08T11:56:02.326Z,51.20
2023-02-08T11:57:02.488Z,51.10
2023-02-08T11:58:02.171Z,51.01
2023-02-08T11:59:02.079Z,50.34
2023-02-08T12:00:23.153Z,50.22
2023-02-08T12:01:01.986Z,50.12
2023-02-08T12:02:01.969Z,50.31
2023-02-08T12:03:03.162Z,50.70
2023-02-08T12:04:02.156Z,50.89
2023-02-08T12:05:02.086Z,50.89
2023-02-08T12:06:01.783Z,50.89
2023-02-08T12:07:01.901Z,50.91
2023-02-08T12:08:01.661Z,51.01
2023-02-08T12:09:03.763Z,50.81
2023-02-08T12:10:01.596Z,50.05
2023-02-08T12:11:02.750Z,50.24
2023-02-08T12:12:01.481Z,50.34
2023-02-08T12:13:02.562Z,50.24
2023-02-08T12:14:01.440Z,49.70
2023-02-08T12:15:02.574Z,49.79
2023-02-08T12:16:01.826Z,49.79
2023-02-08T12:17:02.384Z,49.70
2023-02-08T12:18:01.230Z,48.85
2023-02-08T12:19:01.367Z,49.13
2023-02-08T12:20:01.140Z,49.13
2023-02-08T12:21:02.479Z,48.37
2023-02-08T12:22:01.020Z,48.18
2023-02-08T12:23:01.199Z,48.18
2023-02-08T12:24:00.986Z,48.21
2023-02-08T12:25:02.057Z,48.21
2023-02-08T12:26:00.838Z,47.54
2023-02-08T12:27:00.802Z,47.34
2023-02-08T12:28:00.775Z,47.54
2023-02-08T12:29:02.793Z,47.25
2023-02-08T12:30:00.657Z,46.88
2023-02-08T12:31:00.708Z,46.99
2023-02-08T12:32:00.878Z,46.89
2023-02-08T12:33:00.552Z,46.89
2023-02-08T12:34:02.775Z,46.99
2023-02-08T12:35:00.450Z,46.99
2023-02-08T12:36:04.669Z,46.42
2023-02-08T12:37:00.363Z,45.95
2023-02-08T12:38:01.645Z,45.95
2023-02-08T12:39:05.380Z,45.95
2023-02-08T12:40:01.464Z,45.66
2023-02-08T12:41:00.399Z,44.61
2023-02-08T12:42:00.166Z,44.71
2023-02-08T12:43:02.265Z,45.56
2023-02-08T12:44:00.160Z,45.47
2023-02-08T12:45:00.296Z,44.52
2023-02-08T12:45:59.957Z,44.87
2023-02-08T12:47:00.040Z,44.80
2023-02-08T12:48:04.323Z,45.75
2023-02-08T12:49:01.075Z,45.56
2023-02-08T12:49:59.759Z,45.35
2023-02-08T12:50:59.866Z,45.35
2023-02-08T12:51:59.671Z,45.26
2023-02-08T12:53:00.895Z,45.73
2023-02-08T12:53:59.609Z,45.64
2023-02-08T12:54:59.536Z,45.54
2023-02-08T12:55:59.745Z,45.64
2023-02-08T12:57:02.472Z,46.01